createdAt,value
2018-03-07T17:31:38.585Z,49.37
2018-03-07T17:34:10.395Z,53.43
2018-03-07T17:46:24.908Z,65.10
2018-03-07T17:48:52.927Z,73.27
2018-03-07T17:51:23.186Z,73.73
2018-03-07T17:53:51.182Z,64.77
2018-03-07T17:56:19.757Z,60.07
2018-03-07T17:58:48.100Z,60.60
2018-03-07T18:01:15.715Z,64.33
2018-03-07T18:03:47.039Z,24.02
2018-03-07T18:07:21.409Z,31.20
2018-03-07T18:09:51.636Z,33.20
2018-03-07T18:12:20.023Z,35.10
2018-03-07T18:14:50.235Z,35.87
2018-03-07T19:20:38.734Z,32.77
2018-03-07T19:23:12.997Z,38.10
2018-03-07T19:25:56.504Z,47.23
2018-03-07T19:28:24.843Z,45.43
2018-03-07T19:30:52.505Z,48.03
2018-03-07T19:33:20.068Z,48.80
2018-03-07T19:35:48.755Z,51.13
2018-03-07T19:38:16.594Z,53.53
2018-03-07T19:40:44.908Z,50.33
2018-03-07T19:43:12.452Z,50.87
2018-03-07T19:45:40.011Z,55.07
2018-03-07T19:48:10.587Z,56.23
2018-03-07T19:50:38.174Z,58.57
2018-03-07T19:53:07.766Z,56.70
2018-03-07T19:55:35.657Z,62.10
2018-03-07T19:58:03.247Z,64.85
2018-03-07T20:00:30.797Z,67.28
2018-03-07T20:02:58.404Z,71.25
2018-03-07T20:05:43.512Z,66.47
2018-03-07T20:08:12.674Z,73.57
2018-03-07T20:10:41.750Z,73.37
2018-03-07T20:19:03.381Z,74.43
2018-03-07T20:21:34.295Z,73.37
2018-03-07T20:24:02.508Z,75.93
2018-03-07T20:26:36.450Z,77.45
2018-03-07T20:29:06.063Z,69.05
2018-03-07T20:31:33.722Z,72.30
2018-03-07T20:34:01.284Z,67.78
2018-03-07T20:36:29.581Z,66.22
2018-03-07T20:49:38.471Z,64.75
2018-03-07T20:52:07.676Z,59.88
2018-03-07T20:54:37.042Z,57.60
2018-03-07T20:57:06.300Z,56.70
2018-03-07T20:59:35.542Z,52.13
2018-03-07T21:02:04.765Z,53.65
2018-03-07T21:04:33.972Z,53.60
2018-03-07T21:07:03.476Z,52.40
2018-03-07T21:09:32.691Z,54.35
2018-03-07T21:12:01.896Z,51.58
2018-03-07T21:30:03.098Z,45.90
2018-03-07T21:34:18.707Z,46.90
2018-03-07T21:36:48.005Z,41.53
2018-03-07T21:39:17.211Z,45.27
2018-03-07T21:41:46.456Z,46.67
2018-03-07T21:44:14.033Z,48.53
2018-03-07T21:46:41.591Z,47.40
2018-03-07T21:49:09.208Z,51.00
2018-03-07T21:51:37.723Z,49.43
2018-03-07T21:54:05.273Z,51.42
2018-03-07T21:56:33.584Z,51.23
2018-03-07T21:59:01.126Z,48.93
2018-03-07T22:01:28.688Z,44.60
2018-03-07T22:03:56.466Z,44.88
2018-03-07T22:06:24.017Z,47.40
2018-03-07T22:08:52.347Z,46.43
2018-03-07T22:11:20.580Z,49.13
